Howard City, MI

9:32 AM EST on December 20, 2014 (GMT -0500)
Gerald R. Ford International | Change Station
CLOSE
Current Station
Airport
Location: Grand Rapids,
Elevation: 804 ft
Nearby Weather Stations

Elev 804 ft 42.88 °N, 85.52 °W | Updated 39 minutes ago

Partly Cloudy
Partly Cloudy
19 °F
Feels Like 14 °F
N
4
Wind Variable Wind from East

Today
High -- | Low -- °F
--% Chance of Precip.
Yesterday
High -- | Low -- °F
Precip. -- in
8:10 AM 5:08 PM
Waning Crescent, 3% visible
Pressure 30.29 in
Visibility 6.0 miles
Clouds Scattered Clouds 3000 ft
Mostly Cloudy 18000 ft
Windchill 14 °F
Dew Point 18 °F
Humidity 93%
Rainfall 0.00 in
Snow Depth Not available.
UV 0 out of 12
Pollen .10 out of 12
Air Quality Not available.
Flu Activity Not available.
METAR KGRR 201353Z 09003KT 6SM BR SCT030 BKN180 M07/M08 A3029

More Conditions Fewer Conditions

Pressure 30.29 in
Visibility 6.0 miles
Clouds Scattered Clouds 3000 ft
Mostly Cloudy 18000 ft
Windchill 14 °F
Dew Point 18 °F
Humidity 93%
Rainfall 0.00 in
Snow Depth Not available.
UV 0 out of 12
Pollen .10 out of 12
Air Quality Not available.
Flu Activity Not available.
METAR KGRR 201353Z 09003KT 6SM BR SCT030 BKN180 M07/M08 A3029

More Conditions Fewer Conditions

10-Day Weather Forecast

Almanac

Astronomy

Dec. 20, 2014 Rise Set
Actual Time
Civil Twilight
Nautical Twilight
Astronomical Twilight
Moon
Length of Visible Light
Length of Day
Tomorrow will be .
, % of the Moon is Illuminated

Today's Extremes

State Highs State Lows

Community

WunderPhotos

Upload Photos

1,779,174 photos uploaded!

WunderBlogs® & News

Nearby

Air Quality

  Air Quality AQ Index Pollutant
Not available.

Snow Depth

Station Depth Elevation

Earthquake Activity

City Distance Mag. Time & Date
Minimum magnitude displayed is 2.5.

Coastal Water Temperatures

Place Temperature

Nearby Weather Stations